Time;durP1;ratioP1;P1;durP2;ratioP2;P2;SDS_P1;SDS_P2;PMS_P1;PMS_P2;Temp;Humidity;BMP_temperature;BMP_pressure;BME280_temperature;BME280_humidity;BME280_pressure;Samples;Min_cycle;Max_cycle;Signal;HPM_P1;HPM_P2
2022/03/24 13:05:22;;;;;;;31.40;15.50;;;;;;;;;;12074993;27;20113;-74
2022/03/24 13:11:09;;;;;;;39.40;15.53;;;;;;;;;;11968763;28;181819;-75
2022/03/24 13:22:36;;;;;;;38.35;15.05;;;;;;;;;;12225590;27;20411;-76
2022/03/24 13:28:26;;;;;;;32.20;15.18;;;;;;;;;;12226985;27;20085;-77
2022/03/24 13:34:15;;;;;;;34.25;14.80;;;;;;;;;;12225239;27;20571;-76
2022/03/24 13:40:04;;;;;;;28.95;13.70;;;;;;;;;;12223909;27;20051;-76
2022/03/24 13:45:52;;;;;;;33.42;15.25;;;;;;;;;;12227091;27;20058;-75
2022/03/24 13:51:43;;;;;;;31.00;15.65;;;;;;;;;;12227114;27;20056;-75
2022/03/24 13:57:31;;;;;;;24.35;12.10;;;;;;;;;;12226568;27;20040;-75
2022/03/24 14:03:19;;;;;;;24.23;12.75;;;;;;;;;;12222904;27;20055;-75
2022/03/24 14:09:06;;;;;;;25.42;13.10;;;;;;;;;;12224297;27;20058;-75
2022/03/24 14:14:55;;;;;;;23.10;11.27;;;;;;;;;;12224971;27;20072;-76
2022/03/24 14:20:42;;;;;;;28.25;12.73;;;;;;;;;;12225003;27;20043;-76
2022/03/24 14:26:30;;;;;;;25.52;12.73;;;;;;;;;;12225025;27;20494;-76
2022/03/24 14:32:22;;;;;;;34.55;13.10;;;;;;;;;;12190639;27;20058;-76
2022/03/24 14:38:10;;;;;;;22.07;11.13;;;;;;;;;;12190575;27;20039;-76
2022/03/24 14:43:57;;;;;;;24.60;12.10;;;;;;;;;;12191832;27;20047;-76
2022/03/24 14:49:46;;;;;;;27.42;12.20;;;;;;;;;;12189520;27;20706;-75
2022/03/24 14:55:33;;;;;;;25.05;11.68;;;;;;;;;;12193291;27;20058;-77
2022/03/24 15:01:20;;;;;;;30.17;13.00;;;;;;;;;;12188927;27;20055;-75
2022/03/24 15:07:09;;;;;;;26.77;11.90;;;;;;;;;;12186352;27;20649;-76
2022/03/24 15:12:56;;;;;;;23.38;11.10;;;;;;;;;;12186806;27;20047;-75
2022/03/24 15:18:45;;;;;;;22.38;11.20;;;;;;;;;;12189638;27;20055;-75
2022/03/24 15:24:33;;;;;;;27.92;11.45;;;;;;;;;;12195263;22;20047;31
2022/03/24 15:30:21;;;;;;;22.77;11.55;;;;;;;;;;12062537;28;20707;-75
2022/03/24 15:36:08;;;;;;;26.10;12.13;;;;;;;;;;12060669;28;20040;-75
2022/03/24 15:41:56;;;;;;;31.88;11.88;;;;;;;;;;12014198;28;20060;-75
2022/03/24 15:47:44;;;;;;;23.48;11.50;;;;;;;;;;12011188;28;20453;-74
2022/03/24 15:53:32;;;;;;;25.23;12.23;;;;;;;;;;12016220;28;20190;-75
2022/03/24 15:59:19;;;;;;;21.33;10.82;;;;;;;;;;12016439;28;20077;-79
2022/03/24 16:05:12;;;;;;;23.60;12.43;;;;;;;;;;12015682;28;20578;-76
2022/03/24 16:10:59;;;;;;;20.83;11.00;;;;;;;;;;12014813;28;20056;-75
2022/03/24 16:16:46;;;;;;;23.75;10.98;;;;;;;;;;12014410;28;20048;-76
2022/03/24 16:22:35;;;;;;;19.40;11.10;;;;;;;;;;12016799;28;20545;-76
2022/03/24 16:28:22;;;;;;;20.45;10.65;;;;;;;;;;12013741;28;20564;-76
2022/03/24 16:34:10;;;;;;;26.30;11.05;;;;;;;;;;12015433;28;20073;-76
2022/03/24 16:39:58;;;;;;;23.83;11.18;;;;;;;;;;12013161;28;20045;-76
2022/03/24 16:45:45;;;;;;;27.38;13.20;;;;;;;;;;12016328;28;20071;-76
2022/03/24 16:51:33;;;;;;;21.10;11.02;;;;;;;;;;12010852;28;20057;-75
2022/03/24 16:57:22;;;;;;;22.10;10.82;;;;;;;;;;12013704;28;20045;-75
2022/03/24 17:03:09;;;;;;;26.85;10.75;;;;;;;;;;12014189;28;20055;-75
2022/03/24 17:08:57;;;;;;;20.15;10.73;;;;;;;;;;12012770;28;20392;-75
2022/03/24 17:14:46;;;;;;;25.90;10.48;;;;;;;;;;12012360;28;20053;-74
2022/03/24 17:20:33;;;;;;;19.98;10.30;;;;;;;;;;12012517;28;20420;-75
2022/03/24 17:26:20;;;;;;;21.30;11.55;;;;;;;;;;12010602;28;20091;-74
2022/03/24 17:32:11;;;;;;;16.85;9.18;;;;;;;;;;12011044;28;20056;-81
2022/03/24 17:37:59;;;;;;;17.90;9.23;;;;;;;;;;12011126;28;20041;-78
2022/03/24 17:43:46;;;;;;;16.33;8.43;;;;;;;;;;12011138;28;20135;-73
2022/03/24 17:49:34;;;;;;;22.42;9.45;;;;;;;;;;12011989;28;20507;-73
2022/03/24 17:55:23;;;;;;;21.45;9.13;;;;;;;;;;12014697;28;20052;-73
2022/03/24 18:01:10;;;;;;;17.58;9.13;;;;;;;;;;12009808;28;20060;-73
2022/03/24 18:06:59;;;;;;;22.05;9.73;;;;;;;;;;12019620;28;20049;-73
2022/03/24 18:12:46;;;;;;;37.05;10.30;;;;;;;;;;12022548;28;20060;-73
2022/03/24 18:18:33;;;;;;;19.48;8.75;;;;;;;;;;12021305;28;20060;-73
2022/03/24 18:24:24;;;;;;;19.75;8.50;;;;;;;;;;12020262;28;20053;-73
2022/03/24 18:30:12;;;;;;;15.82;7.55;;;;;;;;;;12011208;28;20049;-73
2022/03/24 18:35:59;;;;;;;18.40;7.80;;;;;;;;;;12015735;28;20076;-73
2022/03/24 18:41:48;;;;;;;15.73;7.43;;;;;;;;;;12018262;28;20048;-73
2022/03/24 18:47:35;;;;;;;36.17;11.93;;;;;;;;;;12017835;28;20045;-72
2022/03/24 18:53:23;;;;;;;28.05;14.43;;;;;;;;;;12016994;28;20091;-75
2022/03/24 18:59:11;;;;;;;21.33;9.30;;;;;;;;;;12013708;28;20512;-71
2022/03/24 19:05:00;;;;;;;43.55;20.63;;;;;;;;;;12013231;28;20056;-72
2022/03/24 19:10:48;;;;;;;28.80;13.13;;;;;;;;;;12014126;28;20563;-72
2022/03/24 19:16:37;;;;;;;24.23;8.88;;;;;;;;;;12005203;28;20057;-72
2022/03/24 19:22:25;;;;;;;24.58;9.05;;;;;;;;;;11996319;28;20187;-72
2022/03/24 19:28:15;;;;;;;28.38;10.80;;;;;;;;;;12015472;28;20085;-73
2022/03/24 19:34:03;;;;;;;20.50;8.93;;;;;;;;;;11994272;28;20612;-72
2022/03/24 19:39:51;;;;;;;21.08;8.90;;;;;;;;;;12016877;28;20059;-74
2022/03/24 19:45:39;;;;;;;24.77;9.32;;;;;;;;;;12015237;28;20044;-74
2022/03/24 19:51:27;;;;;;;28.50;10.90;;;;;;;;;;12014887;28;20059;-74
2022/03/24 19:57:15;;;;;;;29.25;10.40;;;;;;;;;;12013876;28;20056;-74
2022/03/24 20:03:02;;;;;;;28.38;11.00;;;;;;;;;;12012592;28;20053;-74
2022/03/24 20:08:51;;;;;;;24.42;10.85;;;;;;;;;;12015931;28;20045;-73
2022/03/24 20:14:38;;;;;;;30.90;11.98;;;;;;;;;;12012426;28;20476;-73
2022/03/24 20:20:25;;;;;;;27.10;12.18;;;;;;;;;;12011978;28;20056;-73
2022/03/24 20:26:14;;;;;;;25.42;11.05;;;;;;;;;;12014646;28;20049;-73
2022/03/24 20:32:01;;;;;;;27.98;11.95;;;;;;;;;;12014195;28;20472;-72
2022/03/24 20:37:51;;;;;;;34.95;12.90;;;;;;;;;;12013332;28;20074;-72
2022/03/24 20:43:40;;;;;;;32.53;12.88;;;;;;;;;;12010593;28;20404;-76
2022/03/24 20:49:27;;;;;;;30.92;13.50;;;;;;;;;;12010381;28;20052;-77
2022/03/24 20:55:14;;;;;;;35.58;15.90;;;;;;;;;;12011313;28;20766;-76
2022/03/24 21:01:03;;;;;;;35.45;14.95;;;;;;;;;;12012377;28;20473;-76
2022/03/24 21:06:51;;;;;;;40.20;14.65;;;;;;;;;;12010271;28;20408;-76
2022/03/24 21:12:39;;;;;;;31.67;13.88;;;;;;;;;;12009329;28;20052;-76
2022/03/24 21:18:27;;;;;;;38.20;15.13;;;;;;;;;;12013011;28;20048;-76
2022/03/24 21:24:15;;;;;;;33.88;13.82;;;;;;;;;;12011170;28;20057;-74
2022/03/24 21:30:02;;;;;;;33.03;14.32;;;;;;;;;;12011806;28;20072;-75
2022/03/24 21:35:51;;;;;;;34.35;14.35;;;;;;;;;;12011104;28;20066;-75
2022/03/24 21:41:38;;;;;;;38.85;14.80;;;;;;;;;;12019779;28;20045;-77
2022/03/24 21:47:25;;;;;;;35.78;14.00;;;;;;;;;;12022098;28;20061;-76
2022/03/24 21:53:14;;;;;;;41.85;15.95;;;;;;;;;;12019108;28;20693;-77
2022/03/24 21:59:01;;;;;;;42.15;16.23;;;;;;;;;;12019196;28;20049;-77
2022/03/24 22:04:48;;;;;;;41.45;16.00;;;;;;;;;;12019489;28;20041;-78
2022/03/24 22:10:37;;;;;;;39.08;16.23;;;;;;;;;;12013340;28;20056;-77
2022/03/24 22:16:24;;;;;;;51.03;18.98;;;;;;;;;;12019787;28;20072;-77
2022/03/24 22:22:11;;;;;;;45.15;19.92;;;;;;;;;;12020799;28;20559;-76
2022/03/24 22:28:00;;;;;;;46.30;18.35;;;;;;;;;;12019118;28;20106;-77
2022/03/24 22:33:47;;;;;;;45.38;17.38;;;;;;;;;;12018581;28;20064;-77
2022/03/24 22:39:34;;;;;;;47.70;18.40;;;;;;;;;;12015034;28;20037;-77
2022/03/24 22:45:23;;;;;;;47.97;19.02;;;;;;;;;;12018157;28;20057;-77
2022/03/24 22:51:11;;;;;;;46.33;18.65;;;;;;;;;;12016585;28;20053;-77
2022/03/24 22:56:58;;;;;;;52.35;19.05;;;;;;;;;;12018088;28;20044;-77
2022/03/24 23:02:47;;;;;;;50.92;18.83;;;;;;;;;;12017313;28;20053;-77
2022/03/24 23:08:34;;;;;;;50.75;20.23;;;;;;;;;;12015486;28;20742;-77
2022/03/24 23:14:21;;;;;;;48.03;19.50;;;;;;;;;;12016903;28;20052;-77
2022/03/24 23:20:13;;;;;;;48.30;21.25;;;;;;;;;;12014940;28;20405;-77
2022/03/24 23:26:01;;;;;;;47.95;18.52;;;;;;;;;;12018181;28;20088;-77
2022/03/24 23:31:48;;;;;;;50.92;18.58;;;;;;;;;;12016321;28;20049;-77
2022/03/24 23:37:37;;;;;;;46.28;18.45;;;;;;;;;;12012128;28;20896;-77
2022/03/24 23:43:24;;;;;;;51.90;20.55;;;;;;;;;;11998229;28;20454;-77
2022/03/24 23:49:11;;;;;;;47.63;19.60;;;;;;;;;;12016572;28;20102;-77
2022/03/24 23:55:00;;;;;;;51.00;20.80;;;;;;;;;;12015756;28;20048;-77
